NEODyS-2

Near Earth Objects - Dynamic Site
NEODyS ∴ Observatories ∴ Site 691 ∴ Obs & residuals
Contact »
691  ▹ 
OBSERVATIONS AND RESIDUALS

691-Steward Observatory, Kitt Peak-Spacewatch

Detections | Residuals | Detections & Residuals

[1-200] [201-400] [401-600] [601-800] [801-1000] [1001-1200] [1201-1400] [1401-1600] [1601-1800] [1801-2000] [2001-2200] [2201-2400] [2401-2600] [2601-2800] [2801-3000] [3001-3200] [3201-3400] [3401-3600] [3601-3800] [3801-4000] [4001-4200] [4201-4400] [4401-4600] [4601-4800] [4801-5000] [5001-5200] [5201-5400] [5401-5600] [5601-5800] [5801-6000] [6001-6200] [6201-6400] [6401-6600] [6601-6800] [6801-7000] [7001-7200] [7201-7400] [7401-7600] [7601-7800] [7801-8000] [8001-8200] [8201-8400] [8401-8600] [8601-8800] [8801-9000] [9001-9200] [9201-9400] [9401-9600] [9601-9800] [9801-10000] [10001-10200] [10201-10400] [10401-10600] [10601-10800] [10801-11000] [11001-11200] [11201-11400] [11401-11600] [11601-11800] [11801-12000] [12001-12200] [12201-12400] [12401-12600] [12601-12800] [12801-13000] [13001-13200] [13201-13400] [13401-13600] [13601-13800] [13801-14000] [14001-14200] [14201-14400] [14401-14600] [14601-14800] [14801-15000] [15001-15200] [15201-15400] [15401-15600] [15601-15800] [15801-16000] [16001-16200] [16201-16400] [16401-16600] [16601-16800] [16801-17000] [17001-17200] [17201-17400] [17401-17600] [17601-17800] [17801-18000] [18001-18200] [18201-18400] [18401-18600] [18601-18800] [18801-19000] [19001-19200] [19201-19400] [19401-19600] [19601-19800] [19801-20000] [20001-20200] [20201-20400] [20401-20600] [20601-20800] [20801-21000] [21001-21200] [21201-21400] [21401-21600] [21601-21800] [21801-22000] [22001-22200] [22201-22400] [22401-22600] [22601-22800] [22801-23000] [23001-23200] [23201-23400] [23401-23600] [23601-23800] [23801-24000] [24001-24200] [24201-24400] [24401-24600] [24601-24800] [24801-25000] [25001-25200] [25201-25400] [25401-25600] [25601-25800] [25801-26000] [26001-26200] [26201-26400] [26401-26600] [26601-26800] [26801-27000] [27001-27200] [27201-27400] [27401-27600] [27601-27800] [27801-28000] [28001-28200] [28201-28400] [28401-28600] [28601-28800] [28801-29000] [29001-29200] [29201-29400] [29401-29600] [29601-29800] [29801-30000] [30001-30200] [30201-30400] [30401-30600] [30601-30800] [30801-31000] [31001-31200] [31201-31400] [31401-31600] [31601-31800] [31801-32000] [32001-32200] [32201-32400] [32401-32600] [32601-32800] [32801-33000] [33001-33200] [33201-33400] [33401-33600] [33601-33800] [33801-34000] [34001-34200] [34201-34400] [34401-34600] [34601-34800] [34801-35000] [35001-35200] [35201-35400] [35401-35600] [35601-35800] [35801-36000] [36001-36200] [36201-36400] [36401-36600] [36601-36800] [36801-37000] [37001-37200] [37201-37400] [37401-37600] [37601-37800] [37801-38000] [38001-38200] [38201-38400] [38401-38600] [38601-38800] [38801-39000] [39001-39200] [39201-39400] [39401-39600] [39601-39800] [39801-40000] [40001-40200] [40201-40400] [40401-40600] [40601-40800] [40801-41000] [41001-41200] [41201-41400] [41401-41600] [41601-41800] [41801-42000] [42001-42200] [42201-42400] [42401-42600] [42601-42800] [42801-43000] [43001-43200] [43201-43400] [43401-43600] [43601-43800] [43801-44000] [44001-44200] [44201-44400] [44401-44600] [44601-44800] [44801-45000] [45001-45200] [45201-45400] [45401-45600] [45601-45800] [45801-46000] [46001-46200] [46201-46400] [46401-46600] [46601-46800] [46801-47000] [47001-47200] [47201-47400] [47401-47600] [47601-47800] [47801-48000] [48001-48200] [48201-48400] [48401-48600] [48601-48800] [48801-49000] [49001-49200] [49201-49400] [49401-49600] [49601-49800] [49801-50000] [50001-50200] [50201-50388]

Designation T Tech N Date Right Ascension Declination Apparent Magnitude Star Catalog Site code χ Used A Used M
yr-mo-day precision hr:min:sec precision rms F bias residual deg min sec precision rms F bias residual mag/col rms residual
2001SK9 O C H 2013-10-06.17945 1.000E-05 01:42:46.400 1.500E-01 0.500 F -0.232 -0.245 +06° 33' 32.30" 1.000E-01 0.500 F 0.223 0.096 20.4 V 0.70 0.00 o 691 0.53 Yes Yes
2001SK9 O C H 2013-10-06.19709 1.000E-05 01:42:44.210 1.500E-01 0.500 F -0.232 -0.967 +06° 33' 10.20" 1.000E-01 0.500 F 0.223 -0.343 20.3 V 0.70 -0.10 o 691 2.06 Yes Yes
2001SK9 O C H 2013-10-06.21473 1.000E-05 01:42:42.120 1.500E-01 0.500 F -0.232 -0.139 +06° 32' 48.00" 1.000E-01 0.500 F 0.223 -0.878 20.8 V 0.70 0.40 o 691 1.78 Yes Yes
2005UK1 O C H 2013-10-08.36131 1.000E-05 03:12:45.220 1.500E-01 0.500 F -0.303 -0.819 +17° 08' 21.60" 1.000E-01 0.500 F 0.235 -1.067 21.3 V 0.70 -0.31 o 691 2.70 Yes Yes
2005UK1 O C H 2013-10-08.37920 1.000E-05 03:12:44.520 1.500E-01 0.500 F -0.303 -0.322 +17° 08' 18.80" 1.000E-01 0.500 F 0.235 -0.556 21.4 V 0.70 -0.21 o 691 1.29 Yes Yes
2000HW23 O C H 2013-10-08.38416 1.000E-05 03:32:36.770 1.500E-01 0.559 F -0.343 -0.379 +16° 29' 05.70" 1.000E-01 0.559 F 0.143 0.884 21.1 V 0.70 0.05 o 691 1.72 Yes Yes
2005UK1 O C H 2013-10-08.39710 1.000E-05 03:12:43.780 1.500E-01 0.500 F -0.303 -0.375 +17° 08' 15.60" 1.000E-01 0.500 F 0.235 -0.421 21.6 V 0.70 -0.01 o 691 1.13 Yes Yes
2000HW23 O C H 2013-10-08.40205 1.000E-05 03:32:35.670 1.500E-01 0.559 F -0.343 -0.435 +16° 29' 05.40" 1.000E-01 0.559 F 0.143 -0.246 21.0 V 0.70 -0.05 o 691 0.90 Yes Yes
2000HW23 O C 2013-10-08.41683 1.000E-05 03:32:34.760 1.500E-01 0.559 F -0.343 -0.488 +16° 29' 06.10" 1.000E-01 0.559 F 0.143 -0.212 20.7 V 0.70 -0.35 o 691 0.96 Yes Yes
2000HW23 O C 2013-10-08.43474 1.000E-05 03:32:33.700 1.500E-01 0.559 F -0.343 0.070 +16° 29' 07.20" 1.000E-01 0.559 F 0.143 0.105 21.3 V 0.70 0.25 o 691 0.23 Yes Yes
2000HW23 O C 2013-10-08.45264 1.000E-05 03:32:32.600 1.500E-01 0.559 F -0.343 0.040 +16° 29' 07.90" 1.000E-01 0.559 F 0.143 0.049 21.0 V 0.70 -0.05 o 691 0.11 Yes Yes
2013TG69 O C 2013-10-09.23452 1.000E-05 02:06:40.690 1.500E-01 0.500 F -0.271 -0.353 +19° 04' 30.00" 1.000E-01 0.500 F 0.155 0.094 20.6 V 0.70 0.49 o 691 0.74 Yes Yes
2013TG69 O C 2013-10-09.25241 1.000E-05 02:06:41.330 1.500E-01 0.500 F -0.271 -0.202 +19° 05' 04.20" 1.000E-01 0.500 F 0.155 -0.358 20.8 V 0.70 0.69 o 691 0.83 Yes Yes
2013TG69 O C 2013-10-09.27030 1.000E-05 02:06:41.940 1.500E-01 0.500 F -0.271 -0.324 +19° 05' 39.20" 1.000E-01 0.500 F 0.155 0.054 20.4 V 0.70 0.29 o 691 0.66 Yes Yes
2016NW22 O C 2013-10-12.15373 1.000E-05 00:53:56.090 1.500E-01 0.500 F -0.173 -0.200 +07° 13' 34.30" 1.000E-01 0.500 F 0.290 0.080 21.3 V 0.70 0.48 o 691 0.44 Yes Yes
2011SD173 O C 2013-10-12.15620 1.000E-05 01:01:07.780 1.500E-01 0.500 F -0.158 -0.376 +07° 39' 52.20" 1.000E-01 0.500 F 0.364 0.028 19.7 V 0.70 0.18 o 691 0.76 Yes Yes
2016NW22 O C 2013-10-12.17140 1.000E-05 00:53:55.450 1.500E-01 0.500 F -0.173 -0.269 +07° 13' 19.70" 1.000E-01 0.500 F 0.290 0.267 21.0 V 0.70 0.18 o 691 0.76 Yes Yes
2011SD173 O C 2013-10-12.17387 1.000E-05 01:01:05.960 1.500E-01 0.500 F -0.158 -0.104 +07° 39' 34.50" 1.000E-01 0.500 F 0.364 -0.013 19.6 V 0.70 0.08 o 691 0.21 Yes Yes
2016NW22 O C 2013-10-12.19253 1.000E-05 00:53:54.670 1.500E-01 0.500 F -0.173 -0.417 +07° 13' 02.20" 1.000E-01 0.500 F 0.290 0.464 20.6 V 0.70 -0.22 o 691 1.26 Yes Yes
2011SD173 O C 2013-10-12.19500 1.000E-05 01:01:03.740 1.500E-01 0.500 F -0.158 -0.304 +07° 39' 13.30" 1.000E-01 0.500 F 0.364 -0.085 19.5 V 0.70 -0.02 o 691 0.64 Yes Yes
2008TA1 O C H 2013-10-12.22212 1.000E-05 01:52:25.930 1.500E-01 0.500 F -0.204 -0.420 +12° 45' 20.00" 1.000E-01 0.500 F 0.258 0.164 20.2 V 0.70 0.30 o 691 0.91 Yes Yes
2008TA1 O C H 2013-10-12.23984 1.000E-05 01:52:23.560 1.500E-01 0.500 F -0.204 -0.467 +12° 45' 21.40" 1.000E-01 0.500 F 0.258 -0.106 20.1 V 0.70 0.20 o 691 0.96 Yes Yes
2008TA1 O C H 2013-10-12.26103 1.000E-05 01:52:20.760 1.500E-01 0.500 F -0.204 0.080 +12° 45' 23.00" 1.000E-01 0.500 F 0.258 -0.470 o 691 0.95 Yes No
2013TJ135 O C 2013-10-12.32852 1.000E-05 02:35:04.890 1.500E-01 0.500 F -0.119 -0.091 +12° 15' 27.30" 1.000E-01 0.500 F 0.264 -0.058 20.3 V 0.70 -0.01 o 691 0.22 Yes Yes
2013TJ135 O C 2013-10-12.34623 1.000E-05 02:35:01.510 1.500E-01 0.500 F -0.119 0.729 +12° 15' 53.10" 1.000E-01 0.500 F 0.264 -0.427 20.3 V 0.70 -0.01 o 691 1.74 Yes Yes
2013TJ135 O C 2013-10-12.36394 1.000E-05 02:34:57.990 1.500E-01 0.500 F -0.119 -0.497 +12° 16' 19.40" 1.000E-01 0.500 F 0.264 -0.228 20.4 V 0.70 0.09 o 691 1.11 Yes Yes
2005UK1 O C H 2013-10-12.39260 1.000E-05 03:09:49.720 1.500E-01 0.500 F -0.235 -0.120 +16° 54' 27.20" 1.000E-01 0.500 F 0.204 -0.823 20.5 V 0.70 -0.93 o 691 1.67 Yes Yes
2000HW23 O C H 2013-10-12.39756 1.000E-05 03:28:24.590 1.500E-01 0.559 F -0.349 -0.180 +16° 31' 13.60" 1.000E-01 0.559 F 0.238 0.188 21.0 V 0.70 0.02 o 691 0.47 Yes Yes
2005UK1 O C H 2013-10-12.41032 1.000E-05 03:09:48.810 1.500E-01 0.500 F -0.235 -0.309 +16° 54' 22.70" 1.000E-01 0.500 F 0.204 -1.263 o 691 2.60 Yes No
2000HW23 O C H 2013-10-12.43353 1.000E-05 03:28:22.070 1.500E-01 0.559 F -0.349 -0.138 +16° 31' 13.60" 1.000E-01 0.559 F 0.238 -0.432 21.1 V 0.70 0.12 o 691 0.81 Yes Yes
2000HW23 O C 2013-10-12.44823 1.000E-05 03:28:21.000 1.500E-01 0.559 F -0.349 -0.707 +16° 31' 14.10" 1.000E-01 0.559 F 0.238 -0.155 20.6 V 0.70 -0.38 o 691 1.30 Yes Yes
2013TV144 O C 2013-10-12.45319 1.000E-05 03:47:09.260 1.500E-01 0.500 F -0.091 -0.220 +17° 42' 55.70" 1.000E-01 0.500 F 0.259 -0.386 20.4 V 0.70 -0.42 o 691 0.89 Yes Yes
2000HW23 O C 2013-10-12.46596 1.000E-05 03:28:19.810 1.500E-01 0.559 F -0.349 0.037 +16° 31' 14.60" 1.000E-01 0.559 F 0.238 0.099 20.8 V 0.70 -0.18 o 691 0.19 Yes Yes
2013TV144 O C 2013-10-12.47092 1.000E-05 03:47:08.590 1.500E-01 0.500 F -0.091 -0.316 +17° 43' 00.00" 1.000E-01 0.500 F 0.259 -0.095 20.8 V 0.70 -0.02 o 691 0.66 Yes Yes
2000HW23 O C 2013-10-12.48368 1.000E-05 03:28:18.580 1.500E-01 0.559 F -0.349 0.169 +16° 31' 14.60" 1.000E-01 0.559 F 0.238 -0.123 21.1 V 0.70 0.12 o 691 0.38 Yes Yes
2013TV144 O C 2013-10-12.48864 1.000E-05 03:47:07.950 1.500E-01 0.500 F -0.091 -0.054 +17° 43' 04.00" 1.000E-01 0.500 F 0.259 -0.037 20.4 V 0.70 -0.42 o 691 0.13 Yes Yes
2008WN2 O C H 2013-10-13.26204 1.000E-05 02:07:04.960 1.500E-01 0.500 F -0.319 1.135 +16° 51' 05.50" 1.000E-01 0.500 F 0.203 -0.407 o 691 2.43 Yes No
2008WN2 O C H 2013-10-13.28666 1.000E-05 02:07:02.730 1.500E-01 0.500 F -0.319 0.770 +16° 50' 51.00" 1.000E-01 0.500 F 0.203 -0.107 o 691 1.57 Yes No
2008WN2 O C H 2013-10-13.30436 1.000E-05 02:07:01.130 1.500E-01 0.500 F -0.319 0.634 +16° 50' 39.90" 1.000E-01 0.500 F 0.203 -0.503 o 691 1.63 Yes No
2013TJ135 O C 2013-10-13.33299 1.000E-05 02:31:59.230 1.500E-01 0.500 F -0.134 -1.067 +12° 39' 39.60" 1.000E-01 0.500 F 0.260 0.647 20.4 V 0.70 0.08 o 691 2.55 Yes Yes
2013TJ135 O C 2013-10-13.35419 1.000E-05 02:31:55.230 1.500E-01 0.500 F -0.134 -0.356 +12° 40' 08.90" 1.000E-01 0.500 F 0.260 -0.085 20.4 V 0.70 0.08 o 691 0.74 Yes Yes
2013TJ135 O C 2013-10-13.37191 1.000E-05 02:31:51.800 1.500E-01 0.500 F -0.134 -1.044 +12° 40' 32.90" 1.000E-01 0.500 F 0.260 -1.112 20.9 V 0.70 0.58 o 691 3.10 Yes Yes
1990TG1 O C 2013-10-14.18197 1.000E-05 01:52:43.380 1.500E-01 0.500 F -0.203 -0.578 +11° 04' 18.30" 1.000E-01 0.500 F 0.306 -0.203 19.4 V 0.70 0.29 o 691 1.23 Yes Yes
1990TG1 O C 2013-10-14.19968 1.000E-05 01:52:42.200 1.500E-01 0.500 F -0.203 -0.386 +11° 04' 10.50" 1.000E-01 0.500 F 0.306 0.187 19.4 V 0.70 0.29 o 691 0.86 Yes Yes
1990TG1 O C 2013-10-14.21738 1.000E-05 01:52:41.030 1.500E-01 0.500 F -0.203 -0.027 +11° 04' 02.30" 1.000E-01 0.500 F 0.306 0.179 20.3 V 0.70 1.19 o 691 0.36 Yes Yes
2008TD4 O C H 2013-10-14.43558 1.000E-05 03:25:01.800 1.500E-01 0.500 F -0.260 0.049 +23° 50' 32.50" 1.000E-01 0.500 F 0.273 -0.724 o 691 1.46 Yes No
2008TD4 O C H 2013-10-14.45331 1.000E-05 03:24:59.150 1.500E-01 0.500 F -0.260 0.411 +23° 50' 06.50" 1.000E-01 0.500 F 0.273 -0.691 o 691 1.62 Yes No
2013SE21 O C 2013-10-15.30115 1.000E-05 02:54:13.100 1.500E-01 0.500 F -0.322 0.015 +19° 44' 43.10" 1.000E-01 0.500 F 0.268 -0.045 19.5 V 0.70 -0.19 o 691 0.10 Yes Yes
2013SE21 O C 2013-10-15.31887 1.000E-05 02:54:22.990 1.500E-01 0.500 F -0.322 -0.063 +19° 46' 28.40" 1.000E-01 0.500 F 0.268 -0.044 19.7 V 0.70 0.01 o 691 0.16 Yes Yes
2013SE21 O C 2013-10-15.33658 1.000E-05 02:54:32.830 1.500E-01 0.500 F -0.322 -0.419 +19° 48' 12.60" 1.000E-01 0.500 F 0.268 -0.620 19.9 V 0.70 0.21 o 691 1.56 Yes Yes
2013TS4 O C 2013-10-15.43366 1.000E-05 03:18:09.660 1.500E-01 0.500 F -0.260 -1.949 +20° 09' 07.50" 1.000E-01 0.500 F 0.296 -1.481 19.2 V 0.70 -0.52 o 691 4.86 No Yes
2009FU4 O C H 2013-10-15.43861 1.000E-05 03:37:06.520 1.500E-01 0.500 F -0.189 0.236 +19° 33' 37.70" 1.000E-01 0.500 F 0.211 -0.427 o 691 0.98 Yes No
2013TS4 O C 2013-10-15.45140 1.000E-05 03:18:11.450 1.500E-01 0.500 F -0.260 -0.098 +20° 09' 05.30" 1.000E-01 0.500 F 0.296 -0.064 19.8 V 0.70 0.08 o 691 0.24 Yes Yes
2009FU4 O C H 2013-10-15.45635 1.000E-05 03:37:05.050 1.500E-01 0.500 F -0.189 -0.272 +19° 33' 39.10" 1.000E-01 0.500 F 0.211 0.631 o 691 1.38 Yes No
2013TS4 O C 2013-10-15.46913 1.000E-05 03:18:13.120 1.500E-01 0.500 F -0.260 -0.058 +20° 09' 01.60" 1.000E-01 0.500 F 0.296 -0.037 19.9 V 0.70 0.18 o 691 0.14 Yes Yes
2009FU4 O C H 2013-10-15.47408 1.000E-05 03:37:03.670 1.500E-01 0.500 F -0.189 0.464 +19° 33' 38.40" 1.000E-01 0.500 F 0.211 -0.390 o 691 1.22 Yes No
2006VV2 O C 2013-10-23.11371 1.000E-05 00:22:54.780 1.500E-01 0.500 F -0.190 -0.806 +06° 33' 24.70" 1.000E-01 0.500 F 0.286 0.002 20.7 V 0.70 -0.14 o 691 1.61 Yes Yes
2006VV2 O C 2013-10-23.17986 1.000E-05 00:22:49.690 1.500E-01 0.500 F -0.190 -0.118 +06° 33' 15.30" 1.000E-01 0.500 F 0.286 0.339 20.7 V 0.70 -0.14 o 691 0.72 Yes Yes
2006VV2 O C 2013-10-23.23616 1.000E-05 00:22:45.250 1.500E-01 0.500 F -0.190 -0.974 +06° 33' 06.60" 1.000E-01 0.500 F 0.286 -0.022 20.6 V 0.70 -0.24 o 691 1.95 Yes Yes
2005UK1 O C H 2013-10-23.34758 1.000E-05 02:58:40.140 1.500E-01 0.500 F -0.256 -0.282 +16° 01' 55.00" 1.000E-01 0.500 F 0.284 -0.277 21.0 V 0.70 0.10 o 691 0.79 Yes Yes
2005UK1 O C H 2013-10-23.36530 1.000E-05 02:58:38.850 1.500E-01 0.500 F -0.256 0.646 +16° 01' 48.50" 1.000E-01 0.500 F 0.284 -0.572 o 691 1.73 Yes No
2005UK1 O C H 2013-10-23.38302 1.000E-05 02:58:37.430 1.500E-01 0.500 F -0.256 -0.299 +16° 01' 41.70" 1.000E-01 0.500 F 0.284 -1.143 o 691 2.37 Yes No
2011SD173 O C H 2013-10-24.08801 1.000E-05 00:44:52.150 1.500E-01 0.500 F -0.217 -0.997 +04° 50' 52.30" 1.000E-01 0.500 F 0.134 -0.136 20.8 V 0.70 0.31 o 691 2.02 Yes Yes
2011SD173 O C H 2013-10-24.11260 1.000E-05 00:44:50.610 1.500E-01 0.500 F -0.217 -0.003 +04° 50' 35.50" 1.000E-01 0.500 F 0.134 -0.224 20.7 V 0.70 0.21 o 691 0.45 Yes Yes
2011SD173 O C H 2013-10-24.14833 1.000E-05 00:44:48.260 1.500E-01 0.500 F -0.217 0.056 +04° 50' 11.40" 1.000E-01 0.500 F 0.134 -0.045 20.6 V 0.70 0.11 o 691 0.14 Yes Yes
2013HG20 O C H 2013-10-25.08474 1.000E-05 00:33:26.860 1.500E-01 0.500 F -0.192 0.098 +03° 36' 34.60" 1.000E-01 0.500 F 0.198 0.477 21.2 V 0.70 0.06 o 691 0.98 Yes Yes
2013HG20 O C H 2013-10-25.16335 1.000E-05 00:33:27.050 1.500E-01 0.500 F -0.192 0.009 +03° 36' 01.40" 1.000E-01 0.500 F 0.198 -0.505 21.4 V 0.70 0.26 o 691 1.01 Yes Yes
2008TD4 O C 2013-10-25.18883 1.000E-05 02:59:09.680 1.500E-01 0.500 F -0.259 -1.016 +19° 25' 04.20" 1.000E-01 0.500 F 0.235 -0.337 20.9 V 0.70 0.32 o 691 2.17 Yes Yes
2008TD4 O C 2013-10-25.20656 1.000E-05 02:59:07.240 1.500E-01 0.500 F -0.259 0.116 +19° 24' 39.30" 1.000E-01 0.500 F 0.235 0.488 20.2 V 0.70 -0.38 o 691 1.01 Yes Yes
2008TD4 O C 2013-10-25.22429 1.000E-05 02:59:04.710 1.500E-01 0.500 F -0.259 0.069 +19° 24' 12.80" 1.000E-01 0.500 F 0.235 -0.258 20.9 V 0.70 0.32 o 691 0.54 Yes Yes
2013TS4 O C 2013-10-25.23937 1.000E-05 03:33:38.780 1.500E-01 0.500 F -0.261 0.035 +19° 21' 37.30" 1.000E-01 0.500 F 0.233 -0.005 19.6 V 0.70 0.20 o 691 0.07 Yes Yes
2013TV144 O C 2013-10-25.23937 1.000E-05 03:36:07.310 1.500E-01 0.500 F -0.191 0.109 +18° 20' 22.40" 1.000E-01 0.500 F 0.172 -0.098 20.5 V 0.70 -0.08 o 691 0.29 Yes Yes
2004HW O C 2013-10-25.24184 1.000E-05 03:46:34.820 1.500E-01 0.500 F -0.040 -0.417 +19° 42' 45.80" 1.000E-01 0.500 F 0.221 -0.171 20.8 V 0.70 -0.08 o 691 0.91 Yes Yes
2003QO104 O C H 2013-10-25.25199 1.000E-05 03:46:54.420 1.500E-01 0.500 F -0.091 -0.583 +17° 35' 50.20" 1.000E-01 0.500 F 0.259 0.524 21.7 V 0.70 0.86 o 691 1.57 Yes Yes
2013TS4 O C 2013-10-25.25708 1.000E-05 03:33:40.080 1.500E-01 0.500 F -0.261 -0.062 +19° 21' 31.00" 1.000E-01 0.500 F 0.233 -0.098 19.7 V 0.70 0.30 o 691 0.23 Yes Yes
2013TV144 O C 2013-10-25.25708 1.000E-05 03:36:05.950 1.500E-01 0.500 F -0.191 -0.005 +18° 20' 24.90" 1.000E-01 0.500 F 0.172 -0.016 20.7 V 0.70 0.12 o 691 0.03 Yes Yes
2004HW O C 2013-10-25.25956 1.000E-05 03:46:33.500 1.500E-01 0.500 F -0.040 -0.400 +19° 42' 41.60" 1.000E-01 0.500 F 0.221 -0.083 20.7 V 0.70 -0.18 o 691 0.82 Yes Yes
2003QO104 O C H 2013-10-25.26970 1.000E-05 03:46:53.450 1.500E-01 0.500 F -0.091 0.806 +17° 35' 47.20" 1.000E-01 0.500 F 0.259 -1.006 21.2 V 0.70 0.36 o 691 2.58 Yes Yes
2013TS4 O C 2013-10-25.27479 1.000E-05 03:33:41.380 1.500E-01 0.500 F -0.261 0.078 +19° 21' 24.60" 1.000E-01 0.500 F 0.233 -0.192 19.4 V 0.70 0.00 o 691 0.41 Yes Yes
2013TV144 O C 2013-10-25.27479 1.000E-05 03:36:04.540 1.500E-01 0.500 F -0.191 -0.681 +18° 20' 26.80" 1.000E-01 0.500 F 0.172 -0.478 20.1 V 0.70 -0.47 o 691 1.68 Yes Yes
2004HW O C 2013-10-25.27727 1.000E-05 03:46:32.150 1.500E-01 0.500 F -0.040 -0.775 +19° 42' 37.60" 1.000E-01 0.500 F 0.221 0.220 20.7 V 0.70 -0.18 o 691 1.62 Yes Yes
2003QO104 O C H 2013-10-25.28742 1.000E-05 03:46:52.310 1.500E-01 0.500 F -0.091 -0.196 +17° 35' 46.90" 1.000E-01 0.500 F 0.259 0.176 21.5 V 0.70 0.66 o 691 0.53 Yes Yes
2013TG5 O C 2013-10-25.35529 1.000E-05 04:38:09.430 1.500E-01 0.500 F -0.087 0.125 +15° 08' 24.30" 1.000E-01 0.500 F 0.203 -0.114 20.1 V 0.70 0.27 o 691 0.34 Yes Yes
2013TG5 O C 2013-10-25.37597 1.000E-05 04:38:08.180 1.500E-01 0.500 F -0.087 -0.366 +15° 09' 32.50" 1.000E-01 0.500 F 0.203 0.327 20.1 V 0.70 0.27 o 691 0.99 Yes Yes
2013TG5 O C 2013-10-25.39457 1.000E-05 04:38:07.120 1.500E-01 0.500 F -0.158 0.274 +15° 10' 33.10" 1.000E-01 0.500 F 0.211 0.033 20.0 V 0.70 0.17 o 691 0.56 Yes Yes
2002WQ4 O C H 2013-10-25.42328 1.000E-05 04:11:36.620 1.500E-01 0.500 F -0.013 0.332 +27° 24' 17.50" 1.000E-01 0.500 F 0.212 -0.150 20.8 V 0.70 0.09 o 691 0.73 Yes Yes
2002WQ4 O C H 2013-10-25.44103 1.000E-05 04:11:36.460 1.500E-01 0.500 F -0.013 -0.139 +27° 24' 19.90" 1.000E-01 0.500 F 0.212 0.580 20.8 V 0.70 0.09 o 691 1.20 Yes Yes
2002WQ4 O C H 2013-10-25.45878 1.000E-05 04:11:36.310 1.500E-01 0.500 F -0.013 -0.507 +27° 24' 20.80" 1.000E-01 0.500 F 0.212 -0.127 20.9 V 0.70 0.19 o 691 1.05 Yes Yes
2011SD173 O C 2013-10-26.09053 1.000E-05 00:42:53.040 1.500E-01 0.500 F -0.190 0.102 +04° 28' 57.40" 1.000E-01 0.500 F 0.096 -0.135 21.2 V 0.70 0.58 o 691 0.34 Yes Yes
2011SD173 O C 2013-10-26.11198 1.000E-05 00:42:51.720 1.500E-01 0.500 F -0.190 -0.698 +04° 28' 44.20" 1.000E-01 0.500 F 0.096 0.055 21.1 V 0.70 0.48 o 691 1.41 Yes Yes
2011SD173 O C 2013-10-26.14267 1.000E-05 00:42:49.950 1.500E-01 0.500 F -0.190 0.135 +04° 28' 25.20" 1.000E-01 0.500 F 0.096 0.209 20.4 V 0.70 -0.22 o 691 0.50 Yes Yes
2013TG5 O C 2013-10-26.35713 1.000E-05 04:37:15.720 1.500E-01 0.500 F -0.158 -0.095 +16° 03' 08.70" 1.000E-01 0.500 F 0.211 0.135 20.0 V 0.70 0.20 o 691 0.33 Yes Yes
2013TG5 O C 2013-10-26.37758 1.000E-05 04:37:14.420 1.500E-01 0.500 F -0.163 -0.098 +16° 04' 16.20" 1.000E-01 0.500 F 0.266 0.206 20.1 V 0.70 0.30 o 691 0.46 Yes Yes
2013TG5 O C 2013-10-26.39622 1.000E-05 04:37:13.220 1.500E-01 0.500 F -0.163 -0.249 +16° 05' 17.40" 1.000E-01 0.500 F 0.266 0.060 20.0 V 0.70 0.20 o 691 0.52 Yes Yes
2004GD28 O C 2013-10-27.26886 1.000E-05 04:01:03.630 1.500E-01 0.500 F -0.228 -0.569 +13° 34' 37.10" 1.000E-01 0.500 F 0.085 -0.023 19.4 V 0.70 0.00 o 691 1.14 Yes Yes
2004GD28 O C 2013-10-27.28658 1.000E-05 04:01:02.250 1.500E-01 0.500 F -0.228 -0.348 +13° 34' 14.40" 1.000E-01 0.500 F 0.085 0.645 19.4 V 0.70 0.00 o 691 1.47 Yes Yes
2004GD28 O C 2013-10-27.30430 1.000E-05 04:01:00.870 1.500E-01 0.500 F -0.228 -0.071 +13° 33' 50.30" 1.000E-01 0.500 F 0.085 -0.070 19.6 V 0.70 0.21 o 691 0.20 Yes Yes
2009FU4 O C H 2013-10-31.18070 1.000E-05 03:14:06.260 1.500E-01 0.500 F -0.218 -0.479 +19° 24' 54.40" 1.000E-01 0.500 F 0.271 -0.344 21.0 V 0.70 -0.14 o 691 1.19 Yes Yes
2013UM9 O C 2013-10-31.18837 1.000E-05 03:10:20.420 1.500E-01 0.500 F -0.222 -0.776 +17° 35' 19.50" 1.000E-01 0.500 F 0.195 -0.062 20.5 V 0.70 0.39 o 691 1.58 Yes Yes
2009FU4 O C H 2013-10-31.19843 1.000E-05 03:14:04.630 1.500E-01 0.500 F -0.218 0.119 +19° 24' 53.90" 1.000E-01 0.500 F 0.271 0.530 21.1 V 0.70 -0.04 o 691 1.10 Yes Yes
2013UM9 O C 2013-10-31.20609 1.000E-05 03:10:16.290 1.500E-01 0.500 F -0.222 -0.714 +17° 35' 45.80" 1.000E-01 0.500 F 0.195 0.338 20.4 V 0.70 0.29 o 691 1.60 Yes Yes
2009FU4 O C H 2013-10-31.22308 1.000E-05 03:14:02.300 1.500E-01 0.500 F -0.218 0.126 +19° 24' 50.60" 1.000E-01 0.500 F 0.271 -0.833 o 691 1.70 Yes No
2013UM9 O C 2013-10-31.23074 1.000E-05 03:10:10.500 1.500E-01 0.500 F -0.222 -0.135 +17° 36' 21.00" 1.000E-01 0.500 F 0.195 -0.032 20.6 V 0.70 0.49 o 691 0.28 Yes Yes
2009HB O C 2013-10-31.36775 1.000E-05 04:46:46.710 1.500E-01 0.500 F -0.173 -0.401 +13° 04' 22.80" 1.000E-01 0.500 F 0.156 0.021 19.8 V 0.70 0.03 o 691 0.81 Yes Yes
2009HB O C 2013-10-31.38298 1.000E-05 04:46:45.360 1.500E-01 0.500 F -0.173 -0.206 +13° 04' 11.90" 1.000E-01 0.500 F 0.156 -0.090 19.8 V 0.70 0.03 o 691 0.45 Yes Yes
2009HB O C 2013-10-31.39564 1.000E-05 04:46:44.230 1.500E-01 0.500 F -0.173 -0.147 +13° 04' 02.80" 1.000E-01 0.500 F 0.156 -0.209 19.8 V 0.70 0.03 o 691 0.51 Yes Yes
2013WT45 O C 2013-11-01.44237 1.000E-05 04:18:15.920 1.500E-01 0.500 F -0.149 -0.300 +28° 38' 17.40" 1.000E-01 0.500 F 0.193 0.008 20.6 V 0.70 -0.15 o 691 0.60 Yes Yes
2002WQ4 O C H 2013-11-01.44748 1.000E-05 04:10:07.160 1.500E-01 0.500 F -0.013 -0.710 +27° 31' 56.70" 1.000E-01 0.500 F 0.212 -0.372 20.5 V 0.70 0.27 o 691 1.61 Yes Yes
2013VN4 O C 2013-11-01.45491 1.000E-05 04:31:55.120 1.500E-01 0.500 F -0.178 -0.192 +27° 02' 28.10" 1.000E-01 0.500 F 0.205 0.631 20.3 V 0.70 -0.20 o 691 1.36 Yes Yes
2013WT45 O C 2013-11-01.46011 1.000E-05 04:18:15.140 1.500E-01 0.500 F -0.149 -0.536 +28° 38' 37.40" 1.000E-01 0.500 F 0.193 -0.050 20.6 V 0.70 -0.14 o 691 1.08 Yes Yes
2002WQ4 O C H 2013-11-01.46522 1.000E-05 04:10:06.730 1.500E-01 0.500 F -0.013 0.467 +27° 31' 56.80" 1.000E-01 0.500 F 0.212 -0.357 o 691 1.18 Yes No
2013VN4 O C 2013-11-01.47612 1.000E-05 04:31:56.270 1.500E-01 0.500 F -0.178 0.053 +27° 00' 52.50" 1.000E-01 0.500 F 0.205 -0.229 20.3 V 0.70 -0.20 o 691 0.48 Yes Yes
2013WT45 O C 2013-11-01.48132 1.000E-05 04:18:14.220 1.500E-01 0.500 F -0.149 -0.748 +28° 39' 01.40" 1.000E-01 0.500 F 0.193 0.054 20.9 V 0.70 0.16 o 691 1.50 Yes Yes
2002WQ4 O C H 2013-11-01.48643 1.000E-05 04:10:06.090 1.500E-01 0.500 F -0.013 0.102 +27° 31' 58.20" 1.000E-01 0.500 F 0.212 1.025 20.0 V 0.70 -0.23 o 691 2.07 Yes Yes
2013VN4 O C 2013-11-01.49387 1.000E-05 04:31:57.210 1.500E-01 0.500 F -0.178 -0.220 +26° 59' 33.20" 1.000E-01 0.500 F 0.205 -0.098 20.5 V 0.70 0.00 o 691 0.49 Yes Yes
2013TV144 O C 2013-11-02.20999 1.000E-05 03:25:46.760 1.500E-01 0.500 F -0.234 -0.061 +18° 30' 24.80" 1.000E-01 0.500 F 0.366 0.024 20.3 V 0.70 -0.12 o 691 0.13 Yes Yes
2004HW O C H 2013-11-02.21247 1.000E-05 03:36:27.180 1.500E-01 0.500 F -0.189 0.302 +19° 07' 18.10" 1.000E-01 0.500 F 0.211 0.014 21.0 V 0.70 0.22 o 691 0.61 Yes Yes
2003QO104 O C H 2013-11-02.22264 1.000E-05 03:38:32.370 1.500E-01 0.500 F -0.195 -0.072 +17° 22' 39.70" 1.000E-01 0.500 F 0.216 -0.119 21.0 V 0.70 0.32 o 691 0.28 Yes Yes
2011JY1 O C 2013-11-02.22511 1.000E-05 03:41:51.020 1.500E-01 0.500 F -0.161 -0.467 +16° 58' 22.20" 1.000E-01 0.500 F 0.221 -0.142 20.4 V 0.70 0.16 o 691 0.98 Yes Yes
2013TV144 O C 2013-11-02.22774 1.000E-05 03:25:45.180 1.500E-01 0.500 F -0.234 -0.185 +18° 30' 25.90" 1.000E-01 0.500 F 0.366 -0.002 20.3 V 0.70 -0.12 o 691 0.37 Yes Yes
2004HW O C H 2013-11-02.23024 1.000E-05 03:36:25.720 1.500E-01 0.500 F -0.189 -0.251 +19° 07' 13.00" 1.000E-01 0.500 F 0.211 -0.177 20.8 V 0.70 0.02 o 691 0.62 Yes Yes
2003QO104 O C H 2013-11-02.24040 1.000E-05 03:38:31.190 1.500E-01 0.500 F -0.195 0.179 +17° 22' 38.00" 1.000E-01 0.500 F 0.216 0.065 20.9 V 0.70 0.22 o 691 0.38 Yes Yes
2011JY1 O C 2013-11-02.24288 1.000E-05 03:41:54.290 1.500E-01 0.500 F -0.161 -0.398 +16° 57' 51.00" 1.000E-01 0.500 F 0.221 0.051 20.2 V 0.70 -0.03 o 691 0.81 Yes Yes
2013TV144 O C 2013-11-02.24552 1.000E-05 03:25:43.590 1.500E-01 0.500 F -0.234 -0.275 +18° 30' 26.90" 1.000E-01 0.500 F 0.366 -0.074 20.2 V 0.70 -0.22 o 691 0.57 Yes Yes
2004HW O C H 2013-11-02.24798 1.000E-05 03:36:24.310 1.500E-01 0.500 F -0.189 -0.089 +19° 07' 08.30" 1.000E-01 0.500 F 0.211 0.039 20.8 V 0.70 0.02 o 691 0.20 Yes Yes
2011JY1 O C 2013-11-02.26063 1.000E-05 03:41:57.540 1.500E-01 0.500 F -0.161 -0.004 +16° 57' 19.30" 1.000E-01 0.500 F 0.221 0.062 20.1 V 0.70 -0.13 o 691 0.12 Yes Yes
2013TG5 O C 2013-11-02.39004 1.000E-05 04:28:49.800 1.500E-01 0.500 F -0.236 0.168 +22° 30' 47.80" 1.000E-01 0.500 F 0.171 -0.025 19.9 V 0.70 0.27 o 691 0.34 Yes Yes
2013TG5 O C 2013-11-02.40783 1.000E-05 04:28:48.140 1.500E-01 0.500 F -0.236 0.747 +22° 31' 45.80" 1.000E-01 0.500 F 0.171 -0.408 19.8 V 0.70 0.17 o 691 1.72 Yes Yes
2013TG5 O C 2013-11-02.42558 1.000E-05 04:28:46.370 1.500E-01 0.500 F -0.236 -0.271 +22° 32' 44.40" 1.000E-01 0.500 F 0.171 0.033 20.0 V 0.70 0.37 o 691 0.55 Yes Yes
2013TE6 O C 2013-11-04.15299 1.000E-05 03:01:35.210 1.500E-01 0.500 F -0.256 -0.001 +16° 24' 16.10" 1.000E-01 0.500 F 0.285 -0.129 18.7 V 0.70 0.41 o 691 0.26 Yes Yes
2013TE6 O C 2013-11-04.17069 1.000E-05 03:01:40.820 1.500E-01 0.500 F -0.256 -0.276 +16° 23' 32.00" 1.000E-01 0.500 F 0.285 0.021 18.6 V 0.70 0.31 o 691 0.56 Yes Yes
2013TE6 O C 2013-11-04.18838 1.000E-05 03:01:46.420 1.500E-01 0.500 F -0.256 -0.118 +16° 22' 47.50" 1.000E-01 0.500 F 0.285 -0.120 18.6 V 0.70 0.31 o 691 0.34 Yes Yes
2011JY1 O C 2013-11-04.25556 1.000E-05 03:50:15.970 1.500E-01 0.500 F -0.275 -0.026 +15° 41' 46.20" 1.000E-01 0.500 F 0.274 -0.214 19.9 V 0.70 0.08 o 691 0.43 Yes Yes
2011JY1 O C 2013-11-04.27327 1.000E-05 03:50:20.440 1.500E-01 0.500 F -0.275 -0.416 +15° 40' 59.40" 1.000E-01 0.500 F 0.274 -0.067 20.1 V 0.70 0.28 o 691 0.85 Yes Yes
2011JY1 O C 2013-11-04.29097 1.000E-05 03:50:24.930 1.500E-01 0.500 F -0.275 -0.083 +15° 40' 11.90" 1.000E-01 0.500 F 0.274 -0.160 20.3 V 0.70 0.49 o 691 0.36 Yes Yes
2013TG5 O C 2013-11-07.42516 1.000E-05 04:20:38.600 1.500E-01 0.500 F -0.033 0.127 +27° 00' 59.50" 1.000E-01 0.500 F 0.260 0.346 19.3 V 0.70 -0.26 o 691 0.74 Yes Yes
2013TG5 O C 2013-11-07.44314 1.000E-05 04:20:36.520 1.500E-01 0.500 F -0.033 -0.182 +27° 01' 54.90" 1.000E-01 0.500 F 0.260 -0.124 19.6 V 0.70 0.04 o 691 0.44 Yes Yes
2013TG5 O C 2013-11-07.46112 1.000E-05 04:20:34.480 1.500E-01 0.500 F -0.033 -0.054 +27° 02' 51.00" 1.000E-01 0.500 F 0.260 0.212 19.4 V 0.70 -0.16 o 691 0.44 Yes Yes
2009FU4 O C 2013-11-08.13568 1.000E-05 03:01:51.040 1.500E-01 0.500 F -0.165 -0.576 +19° 10' 48.30" 1.000E-01 0.500 F 0.253 -0.304 20.7 V 0.70 -0.28 o 691 1.31 Yes Yes
2013TV144 O C 2013-11-08.14063 1.000E-05 03:17:30.030 1.500E-01 0.500 F -0.305 -0.822 +18° 32' 16.10" 1.000E-01 0.500 F 0.298 0.023 20.5 V 0.70 0.22 o 691 1.66 Yes Yes
2009FU4 O C 2013-11-08.15338 1.000E-05 03:01:49.430 1.500E-01 0.500 F -0.165 -0.325 +19° 10' 46.30" 1.000E-01 0.500 F 0.253 -0.264 21.1 V 0.70 0.12 o 691 0.84 Yes Yes
2013TV144 O C 2013-11-08.15833 1.000E-05 03:17:28.500 1.500E-01 0.500 F -0.305 -0.695 +18° 32' 16.60" 1.000E-01 0.500 F 0.298 0.012 20.9 V 0.70 0.62 o 691 1.40 Yes Yes
2009FU4 O C 2013-11-08.17107 1.000E-05 03:01:47.810 1.500E-01 0.500 F -0.165 -0.182 +19° 10' 44.30" 1.000E-01 0.500 F 0.253 -0.213 20.7 V 0.70 -0.28 o 691 0.56 Yes Yes
2013TV144 O C 2013-11-08.17602 1.000E-05 03:17:26.990 1.500E-01 0.500 F -0.305 -0.129 +18° 32' 16.90" 1.000E-01 0.500 F 0.298 -0.161 20.2 V 0.70 -0.08 o 691 0.41 Yes Yes
2014CX14 O C 2013-11-08.30829 1.000E-05 04:28:51.400 1.500E-01 0.500 F -0.157 -0.075 +14° 27' 29.20" 1.000E-01 0.500 F 0.199 0.088 21.6 V 0.70 0.61 o 691 0.24 Yes Yes
2014CX14 O C 2013-11-08.32342 1.000E-05 04:28:50.960 1.500E-01 0.500 F -0.157 -0.477 +14° 27' 25.00" 1.000E-01 0.500 F 0.199 0.120 20.9 V 0.70 -0.09 o 691 1.05 Yes Yes
2014CX14 O C 2013-11-08.33607 1.000E-05 04:28:50.650 1.500E-01 0.500 F -0.157 0.057 +14° 27' 21.20" 1.000E-01 0.500 F 0.199 -0.119 21.3 V 0.70 0.31 o 691 0.28 Yes Yes
2006HU30 O C 2013-11-08.34706 1.000E-05 03:37:03.990 1.500E-01 0.500 F -0.046 -0.328 +28° 15' 35.80" 1.000E-01 0.500 F 0.202 -0.033 17.3 V 0.70 -0.01 o 691 0.66 Yes Yes
2013VA12 O C 2013-11-08.35721 1.000E-05 03:40:24.680 1.500E-01 0.500 F -0.071 -0.065 +27° 05' 19.90" 1.000E-01 0.500 F 0.177 -0.043 19.8 V 0.70 0.08 o 691 0.16 Yes Yes
2006HU30 O C 2013-11-08.36503 1.000E-05 03:36:56.700 1.500E-01 0.500 F -0.046 -0.214 +28° 16' 56.70" 1.000E-01 0.500 F 0.202 -0.085 17.3 V 0.70 -0.01 o 691 0.46 Yes Yes
2013VA12 O C 2013-11-08.37519 1.000E-05 03:40:19.330 1.500E-01 0.500 F -0.071 -0.148 +27° 04' 31.40" 1.000E-01 0.500 F 0.177 -0.034 19.9 V 0.70 0.18 o 691 0.32 Yes Yes
2006HU30 O C 2013-11-08.38302 1.000E-05 03:36:49.410 1.500E-01 0.500 F -0.046 -0.154 +28° 18' 17.40" 1.000E-01 0.500 F 0.202 -0.096 17.4 V 0.70 0.09 o 691 0.37 Yes Yes
2013VA12 O C 2013-11-08.39318 1.000E-05 03:40:14.020 1.500E-01 0.500 F -0.052 0.052 +27° 03' 42.60" 1.000E-01 0.500 F 0.142 -0.033 19.9 V 0.70 0.18 o 691 0.13 Yes Yes
2008CM116 O C 2013-11-08.47572 1.000E-05 11:15:16.420 1.500E-01 0.500 F 0.083 0.079 +23° 43' 12.30" 1.000E-01 0.500 F 0.198 -0.326 20.9 V 0.70 0.56 o 691 0.67 Yes Yes
2008CM116 O C 2013-11-08.48865 1.000E-05 11:15:17.500 1.500E-01 0.500 F 0.083 -0.285 +23° 43' 09.20" 1.000E-01 0.500 F 0.198 0.048 21.0 V 0.70 0.66 o 691 0.58 Yes Yes
2008CM116 O C 2013-11-08.50160 1.000E-05 11:15:18.620 1.500E-01 0.500 F 0.083 -0.086 +23° 43' 05.40" 1.000E-01 0.500 F 0.198 -0.266 20.9 V 0.70 0.56 o 691 0.56 Yes Yes
2004HW O C 2013-11-09.21103 1.000E-05 03:27:14.120 1.500E-01 0.500 F -0.218 -0.365 +18° 33' 14.90" 1.000E-01 0.500 F 0.356 -0.182 20.7 V 0.70 0.04 o 691 0.82 Yes Yes
2003QO104 O C 2013-11-09.22168 1.000E-05 03:30:34.640 1.500E-01 0.500 F -0.319 -0.030 +17° 08' 53.20" 1.000E-01 0.500 F 0.248 0.261 20.3 V 0.70 -0.22 o 691 0.53 Yes Yes
2004HW O C 2013-11-09.22927 1.000E-05 03:27:12.650 1.500E-01 0.500 F -0.218 -0.418 +18° 33' 09.60" 1.000E-01 0.500 F 0.356 -0.131 20.8 V 0.70 0.14 o 691 0.88 Yes Yes
2003QO104 O C 2013-11-09.23939 1.000E-05 03:30:33.360 1.500E-01 0.500 F -0.319 -0.371 +17° 08' 50.70" 1.000E-01 0.500 F 0.248 -0.086 20.7 V 0.70 0.18 o 691 0.76 Yes Yes
2004HW O C 2013-11-09.24697 1.000E-05 03:27:11.250 1.500E-01 0.500 F -0.218 -0.065 +18° 33' 04.40" 1.000E-01 0.500 F 0.356 -0.124 20.5 V 0.70 -0.16 o 691 0.28 Yes Yes
2003QO104 O C 2013-11-09.25708 1.000E-05 03:30:32.120 1.500E-01 0.500 F -0.319 -0.138 +17° 08' 48.60" 1.000E-01 0.500 F 0.248 -0.024 20.7 V 0.70 0.18 o 691 0.28 Yes Yes
2013TS4 O C 2013-11-09.27616 1.000E-05 03:49:58.310 1.500E-01 0.500 F -0.102 -0.121 +17° 19' 28.10" 1.000E-01 0.500 F 0.182 -0.102 19.3 V 0.70 0.31 o 691 0.32 Yes Yes
2013TS4 O C 2013-11-09.29459 1.000E-05 03:49:58.970 1.500E-01 0.500 F -0.102 -0.127 +17° 19' 18.40" 1.000E-01 0.500 F 0.182 -0.200 19.4 V 0.70 0.41 o 691 0.48 Yes Yes
2013TS4 O C 2013-11-09.31301 1.000E-05 03:49:59.620 1.500E-01 0.500 F -0.102 -0.159 +17° 19' 08.80" 1.000E-01 0.500 F 0.182 -0.087 19.4 V 0.70 0.41 o 691 0.36 Yes Yes
2013UC O C 2013-11-10.27664 1.000E-05 03:48:15.620 1.500E-01 0.500 F -0.182 -0.124 +25° 01' 36.90" 1.000E-01 0.500 F 0.283 0.006 20.8 V 0.70 0.94 o 691 0.25 Yes Yes
2013UC O C 2013-11-10.29463 1.000E-05 03:48:16.800 1.500E-01 0.500 F -0.182 -0.095 +25° 01' 09.00" 1.000E-01 0.500 F 0.283 0.062 19.9 V 0.70 0.04 o 691 0.23 Yes Yes
2013UC O C 2013-11-10.31262 1.000E-05 03:48:17.970 1.500E-01 0.500 F -0.182 -0.100 +25° 00' 40.70" 1.000E-01 0.500 F 0.283 -0.120 20.0 V 0.70 0.14 o 691 0.32 Yes Yes
2004DD O C 2013-11-10.49885 1.000E-05 10:47:31.130 1.500E-01 0.500 F 0.119 0.133 +21° 07' 12.10" 1.000E-01 0.500 F 0.286 0.194 21.3 V 0.70 -0.38 o 691 0.48 Yes Yes
2004DD O C 2013-11-10.51158 1.000E-05 10:47:32.560 1.500E-01 0.500 F 0.119 0.090 +21° 07' 05.50" 1.000E-01 0.500 F 0.286 -0.079 21.4 V 0.70 -0.28 o 691 0.25 Yes Yes
2004DD O C 2013-11-10.52432 1.000E-05 10:47:33.970 1.500E-01 0.500 F 0.119 -0.219 +21° 06' 59.20" 1.000E-01 0.500 F 0.286 -0.038 21.7 V 0.70 0.02 o 691 0.43 Yes Yes
1999VL12 O C 2013-11-11.13603 1.000E-05 02:37:26.600 1.500E-01 0.500 F -0.155 -0.209 +22° 11' 01.20" 1.000E-01 0.500 F 0.280 0.283 18.5 V 0.70 0.17 o 691 0.70 Yes Yes
1999VL12 O C 2013-11-11.15377 1.000E-05 02:37:25.100 1.500E-01 0.500 F -0.155 -0.095 +22° 10' 33.60" 1.000E-01 0.500 F 0.280 0.002 18.9 V 0.70 0.57 o 691 0.19 Yes Yes
1999VL12 O C 2013-11-11.16911 1.000E-05 02:37:23.770 1.500E-01 0.500 F -0.155 -0.392 +22° 10' 10.10" 1.000E-01 0.500 F 0.280 0.149 19.1 V 0.70 0.77 o 691 0.84 Yes Yes
2013VN4 O C 2013-11-11.30238 1.000E-05 04:38:29.850 1.500E-01 0.500 F -0.158 -0.016 +15° 22' 36.10" 1.000E-01 0.500 F 0.211 0.250 20.3 V 0.70 -0.14 o 691 0.51 Yes Yes
2014CX14 O C 2013-11-11.30747 1.000E-05 04:27:33.550 1.500E-01 0.500 F -0.157 0.111 +14° 12' 58.00" 1.000E-01 0.500 F 0.200 0.387 20.7 V 0.70 -0.12 o 691 0.85 Yes Yes
2013VN4 O C 2013-11-11.31752 1.000E-05 04:38:29.950 1.500E-01 0.500 F -0.158 -0.350 +15° 21' 35.90" 1.000E-01 0.500 F 0.211 -0.095 20.3 V 0.70 -0.14 o 691 0.74 Yes Yes
2014CX14 O C 2013-11-11.32262 1.000E-05 04:27:33.020 1.500E-01 0.500 F -0.157 0.213 +14° 12' 53.10" 1.000E-01 0.500 F 0.200 -0.119 21.2 V 0.70 0.39 o 691 0.52 Yes Yes
2013VN4 O C 2013-11-11.33267 1.000E-05 04:38:30.080 1.500E-01 0.500 F -0.158 -0.173 +15° 20' 36.30" 1.000E-01 0.500 F 0.211 0.243 20.4 V 0.70 -0.04 o 691 0.61 Yes Yes
2014CX14 O C 2013-11-11.33527 1.000E-05 04:27:32.550 1.500E-01 0.500 F -0.157 -0.075 +14° 12' 49.40" 1.000E-01 0.500 F 0.200 -0.129 20.9 V 0.70 0.09 o 691 0.32 Yes Yes
2013SK19 O C 2013-11-11.34528 1.000E-05 04:08:36.280 1.500E-01 0.500 F -0.137 -0.049 +18° 09' 20.00" 1.000E-01 0.500 F 0.264 0.029 18.2 V 0.70 0.28 o 691 0.11 Yes Yes
2013SK19 O C 2013-11-11.36298 1.000E-05 04:08:35.530 1.500E-01 0.500 F -0.137 -0.190 +18° 08' 03.10" 1.000E-01 0.500 F 0.264 -0.024 18.2 V 0.70 0.28 o 691 0.39 Yes Yes
2013SK19 O C 2013-11-11.38416 1.000E-05 04:08:34.660 1.500E-01 0.500 F -0.137 -0.007 +18° 06' 30.50" 1.000E-01 0.500 F 0.264 -0.587 19.3 V 0.70 1.38 o 691 1.18 Yes Yes
2002WQ4 O C 2013-11-11.41187 1.000E-05 04:03:08.000 1.500E-01 0.500 F 0.003 -0.183 +27° 22' 50.60" 1.000E-01 0.500 F 0.192 -0.240 19.9 V 0.70 0.43 o 691 0.61 Yes Yes
2002WQ4 O C 2013-11-11.42961 1.000E-05 04:03:06.800 1.500E-01 0.500 F 0.003 -0.262 +27° 22' 47.80" 1.000E-01 0.500 F 0.192 -0.031 19.8 V 0.70 0.34 o 691 0.53 Yes Yes
2002WQ4 O C 2013-11-11.44735 1.000E-05 04:03:05.610 1.500E-01 0.500 F 0.003 -0.295 +27° 22' 44.60" 1.000E-01 0.500 F 0.192 -0.140 19.9 V 0.70 0.44 o 691 0.66 Yes Yes
2013TV144 O C 2013-11-12.16180 1.000E-05 03:12:01.880 1.500E-01 0.500 F -0.247 -0.097 +18° 31' 42.20" 1.000E-01 0.500 F 0.192 0.112 20.4 V 0.70 0.28 o 691 0.30 Yes Yes
2009FU4 O C H 2013-11-12.16958 1.000E-05 02:55:51.140 1.500E-01 0.500 F -0.306 -0.515 +19° 02' 04.50" 1.000E-01 0.500 F 0.191 -0.174 20.8 V 0.70 -0.24 o 691 1.10 Yes Yes
2013TV144 O C 2013-11-12.17453 1.000E-05 03:12:00.810 1.500E-01 0.500 F -0.247 -0.087 +18° 31' 42.40" 1.000E-01 0.500 F 0.192 0.219 20.3 V 0.70 0.18 o 691 0.47 Yes Yes
2009FU4 O C H 2013-11-12.18232 1.000E-05 02:55:50.000 1.500E-01 0.500 F -0.306 -0.608 +19° 02' 02.70" 1.000E-01 0.500 F 0.191 -0.334 20.8 V 0.70 -0.24 o 691 1.40 Yes Yes
2013TV144 O C 2013-11-12.18728 1.000E-05 03:11:59.730 1.500E-01 0.500 F -0.247 -0.126 +18° 31' 42.30" 1.000E-01 0.500 F 0.192 0.049 20.4 V 0.70 0.28 o 691 0.27 Yes Yes
2002WQ4 O C 2013-11-27.10087 1.000E-05 03:38:49.360 1.500E-01 0.500 F -0.111 -0.547 +25° 47' 13.20" 1.000E-01 0.500 F 0.205 -0.620 o 691 1.67 Yes No
2002WQ4 O C 2013-11-27.12843 1.000E-05 03:38:45.790 1.500E-01 0.500 F -0.111 -0.209 +25° 46' 57.50" 1.000E-01 0.500 F 0.205 -0.118 o 691 0.48 Yes No
2002WQ4 O C 2013-11-27.14619 1.000E-05 03:38:43.450 1.500E-01 0.500 F -0.111 -0.221 +25° 46' 47.10" 1.000E-01 0.500 F 0.205 0.024 o 691 0.45 Yes No
2004DC O C H 2013-11-27.22298 1.000E-05 04:54:28.020 1.500E-01 0.500 F -0.274 0.390 +19° 35' 45.20" 1.000E-01 0.500 F 0.237 -0.036 o 691 0.78 Yes No
2004DC O C H 2013-11-27.24070 1.000E-05 04:54:26.130 1.500E-01 0.500 F -0.274 0.280 +19° 35' 50.40" 1.000E-01 0.500 F 0.237 -0.628 o 691 1.38 Yes No
2000JY8 O C H 2013-11-29.47316 1.000E-05 12:15:50.680 1.500E-01 0.500 F 0.233 0.664 +04° 43' 02.70" 1.000E-01 0.500 F 0.203 -0.005 o 691 1.35 Yes No
2013WT67 O C 2013-11-29.48337 1.000E-05 12:50:07.350 1.500E-01 0.500 F 0.176 -0.426 +06° 01' 08.10" 1.000E-01 0.500 F 0.119 -0.055 20.3 V 0.70 0.56 o 691 0.86 Yes Yes
2000JY8 O C H 2013-11-29.48686 1.000E-05 12:15:54.480 1.500E-01 0.500 F 0.233 1.293 +04° 42' 52.00" 1.000E-01 0.500 F 0.203 -1.224 o 691 3.52 No No
2013WT67 O C 2013-11-29.49707 1.000E-05 12:50:09.160 1.500E-01 0.500 F 0.176 -0.365 +06° 00' 32.70" 1.000E-01 0.500 F 0.119 0.233 19.9 V 0.70 0.16 o 691 0.87 Yes Yes

[1-200] [201-400] [401-600] [601-800] [801-1000] [1001-1200] [1201-1400] [1401-1600] [1601-1800] [1801-2000] [2001-2200] [2201-2400] [2401-2600] [2601-2800] [2801-3000] [3001-3200] [3201-3400] [3401-3600] [3601-3800] [3801-4000] [4001-4200] [4201-4400] [4401-4600] [4601-4800] [4801-5000] [5001-5200] [5201-5400] [5401-5600] [5601-5800] [5801-6000] [6001-6200] [6201-6400] [6401-6600] [6601-6800] [6801-7000] [7001-7200] [7201-7400] [7401-7600] [7601-7800] [7801-8000] [8001-8200] [8201-8400] [8401-8600] [8601-8800] [8801-9000] [9001-9200] [9201-9400] [9401-9600] [9601-9800] [9801-10000] [10001-10200] [10201-10400] [10401-10600] [10601-10800] [10801-11000] [11001-11200] [11201-11400] [11401-11600] [11601-11800] [11801-12000] [12001-12200] [12201-12400] [12401-12600] [12601-12800] [12801-13000] [13001-13200] [13201-13400] [13401-13600] [13601-13800] [13801-14000] [14001-14200] [14201-14400] [14401-14600] [14601-14800] [14801-15000] [15001-15200] [15201-15400] [15401-15600] [15601-15800] [15801-16000] [16001-16200] [16201-16400] [16401-16600] [16601-16800] [16801-17000] [17001-17200] [17201-17400] [17401-17600] [17601-17800] [17801-18000] [18001-18200] [18201-18400] [18401-18600] [18601-18800] [18801-19000] [19001-19200] [19201-19400] [19401-19600] [19601-19800] [19801-20000] [20001-20200] [20201-20400] [20401-20600] [20601-20800] [20801-21000] [21001-21200] [21201-21400] [21401-21600] [21601-21800] [21801-22000] [22001-22200] [22201-22400] [22401-22600] [22601-22800] [22801-23000] [23001-23200] [23201-23400] [23401-23600] [23601-23800] [23801-24000] [24001-24200] [24201-24400] [24401-24600] [24601-24800] [24801-25000] [25001-25200] [25201-25400] [25401-25600] [25601-25800] [25801-26000] [26001-26200] [26201-26400] [26401-26600] [26601-26800] [26801-27000] [27001-27200] [27201-27400] [27401-27600] [27601-27800] [27801-28000] [28001-28200] [28201-28400] [28401-28600] [28601-28800] [28801-29000] [29001-29200] [29201-29400] [29401-29600] [29601-29800] [29801-30000] [30001-30200] [30201-30400] [30401-30600] [30601-30800] [30801-31000] [31001-31200] [31201-31400] [31401-31600] [31601-31800] [31801-32000] [32001-32200] [32201-32400] [32401-32600] [32601-32800] [32801-33000] [33001-33200] [33201-33400] [33401-33600] [33601-33800] [33801-34000] [34001-34200] [34201-34400] [34401-34600] [34601-34800] [34801-35000] [35001-35200] [35201-35400] [35401-35600] [35601-35800] [35801-36000] [36001-36200] [36201-36400] [36401-36600] [36601-36800] [36801-37000] [37001-37200] [37201-37400] [37401-37600] [37601-37800] [37801-38000] [38001-38200] [38201-38400] [38401-38600] [38601-38800] [38801-39000] [39001-39200] [39201-39400] [39401-39600] [39601-39800] [39801-40000] [40001-40200] [40201-40400] [40401-40600] [40601-40800] [40801-41000] [41001-41200] [41201-41400] [41401-41600] [41601-41800] [41801-42000] [42001-42200] [42201-42400] [42401-42600] [42601-42800] [42801-43000] [43001-43200] [43201-43400] [43401-43600] [43601-43800] [43801-44000] [44001-44200] [44201-44400] [44401-44600] [44601-44800] [44801-45000] [45001-45200] [45201-45400] [45401-45600] [45601-45800] [45801-46000] [46001-46200] [46201-46400] [46401-46600] [46601-46800] [46801-47000] [47001-47200] [47201-47400] [47401-47600] [47601-47800] [47801-48000] [48001-48200] [48201-48400] [48401-48600] [48601-48800] [48801-49000] [49001-49200] [49201-49400] [49401-49600] [49601-49800] [49801-50000] [50001-50200] [50201-50388]